sensor_id;sensor_type;location;lat;lon;timestamp;P1;durP1;ratioP1;P2;durP2;ratioP2
24644;SDS011;12780;45.502;9.146;2023-04-24T00:00:53;8.45;;;5.28;;
24644;SDS011;12780;45.502;9.146;2023-04-24T00:03:25;6.63;;;4.93;;
24644;SDS011;12780;45.502;9.146;2023-04-24T00:05:51;9.80;;;4.93;;
24644;SDS011;12780;45.502;9.146;2023-04-24T00:08:17;8.43;;;5.40;;
24644;SDS011;12780;45.502;9.146;2023-04-24T00:10:43;7.40;;;5.18;;
24644;SDS011;12780;45.502;9.146;2023-04-24T00:13:08;9.55;;;5.43;;
24644;SDS011;12780;45.502;9.146;2023-04-24T00:15:34;9.40;;;5.25;;
24644;SDS011;12780;45.502;9.146;2023-04-24T00:18:00;11.50;;;5.78;;
24644;SDS011;12780;45.502;9.146;2023-04-24T00:20:26;10.55;;;5.72;;
24644;SDS011;12780;45.502;9.146;2023-04-24T00:22:54;9.43;;;6.13;;
24644;SDS011;12780;45.502;9.146;2023-04-24T00:25:20;10.85;;;5.95;;
24644;SDS011;12780;45.502;9.146;2023-04-24T00:27:45;11.32;;;6.13;;
24644;SDS011;12780;45.502;9.146;2023-04-24T00:30:11;10.55;;;6.32;;
24644;SDS011;12780;45.502;9.146;2023-04-24T00:32:36;12.02;;;5.88;;
24644;SDS011;12780;45.502;9.146;2023-04-24T00:35:02;9.80;;;6.03;;
24644;SDS011;12780;45.502;9.146;2023-04-24T00:37:28;8.13;;;5.82;;
24644;SDS011;12780;45.502;9.146;2023-04-24T00:39:53;10.20;;;5.45;;
24644;SDS011;12780;45.502;9.146;2023-04-24T00:42:20;10.65;;;6.53;;
24644;SDS011;12780;45.502;9.146;2023-04-24T00:44:45;12.65;;;6.43;;
24644;SDS011;12780;45.502;9.146;2023-04-24T00:47:11;11.77;;;5.90;;
24644;SDS011;12780;45.502;9.146;2023-04-24T00:49:37;7.95;;;5.47;;
24644;SDS011;12780;45.502;9.146;2023-04-24T00:52:03;10.93;;;6.20;;
24644;SDS011;12780;45.502;9.146;2023-04-24T00:54:32;11.45;;;6.22;;
24644;SDS011;12780;45.502;9.146;2023-04-24T00:56:58;15.55;;;6.75;;
24644;SDS011;12780;45.502;9.146;2023-04-24T00:59:23;14.88;;;8.00;;
24644;SDS011;12780;45.502;9.146;2023-04-24T01:01:49;15.35;;;11.05;;
24644;SDS011;12780;45.502;9.146;2023-04-24T01:04:16;25.58;;;14.75;;
24644;SDS011;12780;45.502;9.146;2023-04-24T01:06:42;27.52;;;18.52;;
24644;SDS011;12780;45.502;9.146;2023-04-24T01:09:09;30.80;;;20.80;;
24644;SDS011;12780;45.502;9.146;2023-04-24T01:11:36;34.22;;;21.35;;
24644;SDS011;12780;45.502;9.146;2023-04-24T01:14:02;29.80;;;20.38;;
24644;SDS011;12780;45.502;9.146;2023-04-24T01:16:28;30.55;;;19.80;;
24644;SDS011;12780;45.502;9.146;2023-04-24T01:18:54;31.27;;;19.42;;
24644;SDS011;12780;45.502;9.146;2023-04-24T01:21:19;30.13;;;17.90;;
24644;SDS011;12780;45.502;9.146;2023-04-24T01:23:46;25.48;;;16.88;;
24644;SDS011;12780;45.502;9.146;2023-04-24T01:26:12;29.00;;;18.60;;
24644;SDS011;12780;45.502;9.146;2023-04-24T01:28:40;24.90;;;17.52;;
24644;SDS011;12780;45.502;9.146;2023-04-24T01:31:06;23.67;;;15.55;;
24644;SDS011;12780;45.502;9.146;2023-04-24T01:33:33;23.13;;;13.77;;
24644;SDS011;12780;45.502;9.146;2023-04-24T01:35:59;21.80;;;14.63;;
24644;SDS011;12780;45.502;9.146;2023-04-24T01:38:25;27.05;;;14.75;;
24644;SDS011;12780;45.502;9.146;2023-04-24T01:40:50;24.13;;;14.80;;
24644;SDS011;12780;45.502;9.146;2023-04-24T01:43:16;21.30;;;12.60;;
24644;SDS011;12780;45.502;9.146;2023-04-24T01:45:42;20.77;;;12.35;;
24644;SDS011;12780;45.502;9.146;2023-04-24T01:48:08;20.35;;;9.43;;
24644;SDS011;12780;45.502;9.146;2023-04-24T01:50:34;13.57;;;8.63;;
24644;SDS011;12780;45.502;9.146;2023-04-24T01:52:59;13.35;;;8.60;;
24644;SDS011;12780;45.502;9.146;2023-04-24T01:55:25;14.13;;;8.68;;
24644;SDS011;12780;45.502;9.146;2023-04-24T01:57:52;16.15;;;11.18;;
24644;SDS011;12780;45.502;9.146;2023-04-24T02:00:19;14.82;;;9.98;;
24644;SDS011;12780;45.502;9.146;2023-04-24T02:02:44;13.63;;;9.38;;
24644;SDS011;12780;45.502;9.146;2023-04-24T02:05:10;14.13;;;8.60;;
24644;SDS011;12780;45.502;9.146;2023-04-24T02:07:36;13.25;;;8.45;;
24644;SDS011;12780;45.502;9.146;2023-04-24T02:10:02;12.07;;;7.85;;
24644;SDS011;12780;45.502;9.146;2023-04-24T02:12:29;11.95;;;8.05;;
24644;SDS011;12780;45.502;9.146;2023-04-24T02:14:54;12.30;;;7.82;;
24644;SDS011;12780;45.502;9.146;2023-04-24T02:17:20;11.98;;;7.78;;
24644;SDS011;12780;45.502;9.146;2023-04-24T02:19:46;12.50;;;7.28;;
24644;SDS011;12780;45.502;9.146;2023-04-24T02:22:11;16.55;;;7.22;;
24644;SDS011;12780;45.502;9.146;2023-04-24T02:24:37;10.95;;;6.75;;
24644;SDS011;12780;45.502;9.146;2023-04-24T02:27:03;10.95;;;7.32;;
24644;SDS011;12780;45.502;9.146;2023-04-24T02:29:29;11.80;;;7.00;;
24644;SDS011;12780;45.502;9.146;2023-04-24T02:31:55;9.55;;;6.70;;
24644;SDS011;12780;45.502;9.146;2023-04-24T02:34:20;13.45;;;6.95;;
24644;SDS011;12780;45.502;9.146;2023-04-24T02:36:46;11.40;;;7.63;;
24644;SDS011;12780;45.502;9.146;2023-04-24T02:39:12;13.70;;;7.30;;
24644;SDS011;12780;45.502;9.146;2023-04-24T02:41:38;10.07;;;6.78;;
24644;SDS011;12780;45.502;9.146;2023-04-24T02:44:03;11.35;;;6.95;;
24644;SDS011;12780;45.502;9.146;2023-04-24T02:46:29;14.27;;;7.55;;
24644;SDS011;12780;45.502;9.146;2023-04-24T02:48:55;14.98;;;7.00;;
24644;SDS011;12780;45.502;9.146;2023-04-24T02:51:20;11.07;;;6.65;;
24644;SDS011;12780;45.502;9.146;2023-04-24T02:53:46;12.18;;;6.95;;
24644;SDS011;12780;45.502;9.146;2023-04-24T02:56:11;11.63;;;7.40;;
24644;SDS011;12780;45.502;9.146;2023-04-24T02:58:37;11.85;;;7.65;;
24644;SDS011;12780;45.502;9.146;2023-04-24T03:01:03;13.30;;;7.80;;
24644;SDS011;12780;45.502;9.146;2023-04-24T03:03:29;12.70;;;7.68;;
24644;SDS011;12780;45.502;9.146;2023-04-24T03:05:55;14.40;;;7.70;;
24644;SDS011;12780;45.502;9.146;2023-04-24T03:08:20;11.15;;;7.57;;
24644;SDS011;12780;45.502;9.146;2023-04-24T03:10:46;9.73;;;7.20;;
24644;SDS011;12780;45.502;9.146;2023-04-24T03:13:11;13.15;;;7.32;;
24644;SDS011;12780;45.502;9.146;2023-04-24T03:15:37;12.75;;;7.20;;
24644;SDS011;12780;45.502;9.146;2023-04-24T03:18:02;10.35;;;6.47;;
24644;SDS011;12780;45.502;9.146;2023-04-24T03:20:28;12.27;;;7.10;;
24644;SDS011;12780;45.502;9.146;2023-04-24T03:22:54;13.25;;;7.55;;
24644;SDS011;12780;45.502;9.146;2023-04-24T03:25:21;12.20;;;7.35;;
24644;SDS011;12780;45.502;9.146;2023-04-24T03:27:47;9.23;;;6.78;;
24644;SDS011;12780;45.502;9.146;2023-04-24T03:30:12;10.63;;;6.57;;
24644;SDS011;12780;45.502;9.146;2023-04-24T03:32:38;11.48;;;6.53;;
24644;SDS011;12780;45.502;9.146;2023-04-24T03:35:04;9.20;;;6.60;;
24644;SDS011;12780;45.502;9.146;2023-04-24T03:37:33;12.77;;;7.35;;
24644;SDS011;12780;45.502;9.146;2023-04-24T03:39:59;15.18;;;6.82;;
24644;SDS011;12780;45.502;9.146;2023-04-24T03:42:25;10.52;;;7.07;;
24644;SDS011;12780;45.502;9.146;2023-04-24T03:44:50;12.27;;;7.38;;
24644;SDS011;12780;45.502;9.146;2023-04-24T03:47:16;11.32;;;7.60;;
24644;SDS011;12780;45.502;9.146;2023-04-24T03:49:41;12.57;;;7.18;;
24644;SDS011;12780;45.502;9.146;2023-04-24T03:52:07;11.02;;;7.38;;
24644;SDS011;12780;45.502;9.146;2023-04-24T03:54:32;10.40;;;6.53;;
24644;SDS011;12780;45.502;9.146;2023-04-24T03:56:58;10.65;;;7.45;;
24644;SDS011;12780;45.502;9.146;2023-04-24T03:59:23;11.82;;;7.70;;
24644;SDS011;12780;45.502;9.146;2023-04-24T04:01:49;11.00;;;7.43;;
24644;SDS011;12780;45.502;9.146;2023-04-24T04:04:15;13.75;;;8.77;;
24644;SDS011;12780;45.502;9.146;2023-04-24T04:06:40;12.52;;;8.13;;
24644;SDS011;12780;45.502;9.146;2023-04-24T04:09:07;9.98;;;6.93;;
24644;SDS011;12780;45.502;9.146;2023-04-24T04:11:33;9.90;;;6.78;;
24644;SDS011;12780;45.502;9.146;2023-04-24T04:14:00;9.48;;;7.05;;
24644;SDS011;12780;45.502;9.146;2023-04-24T04:16:26;10.43;;;6.43;;
24644;SDS011;12780;45.502;9.146;2023-04-24T04:18:51;18.38;;;7.50;;
24644;SDS011;12780;45.502;9.146;2023-04-24T04:21:17;10.23;;;7.32;;
24644;SDS011;12780;45.502;9.146;2023-04-24T04:23:42;11.82;;;7.63;;
24644;SDS011;12780;45.502;9.146;2023-04-24T04:26:08;14.38;;;7.32;;
24644;SDS011;12780;45.502;9.146;2023-04-24T04:28:34;11.25;;;7.70;;
24644;SDS011;12780;45.502;9.146;2023-04-24T04:30:59;11.60;;;7.38;;
24644;SDS011;12780;45.502;9.146;2023-04-24T04:33:25;11.82;;;7.53;;
24644;SDS011;12780;45.502;9.146;2023-04-24T04:35:51;10.88;;;7.18;;
24644;SDS011;12780;45.502;9.146;2023-04-24T04:38:18;14.55;;;7.65;;
24644;SDS011;12780;45.502;9.146;2023-04-24T04:40:44;11.70;;;7.57;;
24644;SDS011;12780;45.502;9.146;2023-04-24T04:43:10;12.02;;;7.22;;
24644;SDS011;12780;45.502;9.146;2023-04-24T04:45:36;10.45;;;6.85;;
24644;SDS011;12780;45.502;9.146;2023-04-24T04:48:03;10.55;;;6.65;;
24644;SDS011;12780;45.502;9.146;2023-04-24T04:50:32;9.15;;;6.68;;
24644;SDS011;12780;45.502;9.146;2023-04-24T04:52:57;10.27;;;6.80;;
24644;SDS011;12780;45.502;9.146;2023-04-24T04:55:23;9.70;;;7.32;;
24644;SDS011;12780;45.502;9.146;2023-04-24T04:57:49;11.30;;;7.05;;
24644;SDS011;12780;45.502;9.146;2023-04-24T05:00:14;10.50;;;7.05;;
24644;SDS011;12780;45.502;9.146;2023-04-24T05:02:40;13.00;;;7.82;;
24644;SDS011;12780;45.502;9.146;2023-04-24T05:05:06;10.13;;;7.40;;
24644;SDS011;12780;45.502;9.146;2023-04-24T05:07:32;12.25;;;7.65;;
24644;SDS011;12780;45.502;9.146;2023-04-24T05:09:58;10.65;;;7.40;;
24644;SDS011;12780;45.502;9.146;2023-04-24T05:12:23;10.50;;;6.90;;
24644;SDS011;12780;45.502;9.146;2023-04-24T05:14:49;10.63;;;6.70;;
24644;SDS011;12780;45.502;9.146;2023-04-24T05:17:15;6.80;;;4.70;;
24644;SDS011;12780;45.502;9.146;2023-04-24T05:19:41;9.07;;;4.63;;
24644;SDS011;12780;45.502;9.146;2023-04-24T05:22:07;7.63;;;5.10;;
24644;SDS011;12780;45.502;9.146;2023-04-24T05:24:34;6.93;;;5.18;;
24644;SDS011;12780;45.502;9.146;2023-04-24T05:27:00;8.95;;;6.55;;
24644;SDS011;12780;45.502;9.146;2023-04-24T05:29:27;10.35;;;6.30;;
24644;SDS011;12780;45.502;9.146;2023-04-24T05:31:55;8.30;;;5.93;;
24644;SDS011;12780;45.502;9.146;2023-04-24T05:34:21;10.15;;;6.03;;
24644;SDS011;12780;45.502;9.146;2023-04-24T05:36:47;9.57;;;5.97;;
24644;SDS011;12780;45.502;9.146;2023-04-24T05:39:13;9.63;;;6.00;;
24644;SDS011;12780;45.502;9.146;2023-04-24T05:41:39;10.55;;;6.82;;
24644;SDS011;12780;45.502;9.146;2023-04-24T05:44:04;8.35;;;6.65;;
24644;SDS011;12780;45.502;9.146;2023-04-24T05:46:30;12.52;;;6.32;;
24644;SDS011;12780;45.502;9.146;2023-04-24T05:48:55;8.35;;;5.32;;
24644;SDS011;12780;45.502;9.146;2023-04-24T05:51:21;8.45;;;4.85;;
24644;SDS011;12780;45.502;9.146;2023-04-24T05:53:46;5.95;;;4.43;;
24644;SDS011;12780;45.502;9.146;2023-04-24T05:56:12;9.02;;;4.70;;
24644;SDS011;12780;45.502;9.146;2023-04-24T05:58:37;7.60;;;5.55;;
24644;SDS011;12780;45.502;9.146;2023-04-24T06:01:04;8.40;;;5.55;;
24644;SDS011;12780;45.502;9.146;2023-04-24T06:03:29;12.07;;;4.85;;
24644;SDS011;12780;45.502;9.146;2023-04-24T06:05:55;6.35;;;3.53;;
24644;SDS011;12780;45.502;9.146;2023-04-24T06:08:21;8.38;;;4.10;;
24644;SDS011;12780;45.502;9.146;2023-04-24T06:10:46;9.40;;;3.83;;
24644;SDS011;12780;45.502;9.146;2023-04-24T06:13:12;4.90;;;3.33;;
24644;SDS011;12780;45.502;9.146;2023-04-24T06:15:37;6.70;;;3.60;;
24644;SDS011;12780;45.502;9.146;2023-04-24T06:18:03;6.80;;;2.83;;
24644;SDS011;12780;45.502;9.146;2023-04-24T06:20:29;6.20;;;3.00;;
24644;SDS011;12780;45.502;9.146;2023-04-24T06:22:54;5.13;;;2.40;;
24644;SDS011;12780;45.502;9.146;2023-04-24T06:25:20;3.45;;;2.60;;
24644;SDS011;12780;45.502;9.146;2023-04-24T06:27:46;6.40;;;3.10;;
24644;SDS011;12780;45.502;9.146;2023-04-24T06:30:11;6.82;;;2.97;;
24644;SDS011;12780;45.502;9.146;2023-04-24T06:32:37;6.10;;;3.28;;
24644;SDS011;12780;45.502;9.146;2023-04-24T06:35:03;4.15;;;2.75;;
24644;SDS011;12780;45.502;9.146;2023-04-24T06:37:29;5.03;;;3.25;;
24644;SDS011;12780;45.502;9.146;2023-04-24T06:39:55;7.07;;;3.70;;
24644;SDS011;12780;45.502;9.146;2023-04-24T06:42:20;4.45;;;3.35;;
24644;SDS011;12780;45.502;9.146;2023-04-24T06:44:46;5.45;;;3.65;;
24644;SDS011;12780;45.502;9.146;2023-04-24T06:47:12;6.22;;;3.67;;
24644;SDS011;12780;45.502;9.146;2023-04-24T06:49:38;8.60;;;3.83;;
24644;SDS011;12780;45.502;9.146;2023-04-24T06:52:04;8.10;;;3.63;;
24644;SDS011;12780;45.502;9.146;2023-04-24T06:54:31;8.25;;;3.63;;
24644;SDS011;12780;45.502;9.146;2023-04-24T06:56:57;9.48;;;3.53;;
24644;SDS011;12780;45.502;9.146;2023-04-24T06:59:23;6.25;;;3.10;;
24644;SDS011;12780;45.502;9.146;2023-04-24T07:01:49;7.50;;;3.30;;
24644;SDS011;12780;45.502;9.146;2023-04-24T07:04:16;4.35;;;2.72;;
24644;SDS011;12780;45.502;9.146;2023-04-24T07:06:42;5.22;;;3.20;;
24644;SDS011;12780;45.502;9.146;2023-04-24T07:09:08;3.63;;;2.55;;
24644;SDS011;12780;45.502;9.146;2023-04-24T07:11:34;4.13;;;2.58;;
24644;SDS011;12780;45.502;9.146;2023-04-24T07:14:00;6.25;;;2.70;;
24644;SDS011;12780;45.502;9.146;2023-04-24T07:16:25;4.40;;;2.70;;
24644;SDS011;12780;45.502;9.146;2023-04-24T07:18:52;5.35;;;2.65;;
24644;SDS011;12780;45.502;9.146;2023-04-24T07:21:17;5.40;;;2.97;;
24644;SDS011;12780;45.502;9.146;2023-04-24T07:23:43;8.73;;;2.88;;
24644;SDS011;12780;45.502;9.146;2023-04-24T07:26:08;4.57;;;2.97;;
24644;SDS011;12780;45.502;9.146;2023-04-24T07:28:34;8.80;;;3.30;;
24644;SDS011;12780;45.502;9.146;2023-04-24T07:31:00;5.07;;;3.00;;
24644;SDS011;12780;45.502;9.146;2023-04-24T07:33:26;3.78;;;3.15;;
24644;SDS011;12780;45.502;9.146;2023-04-24T07:35:51;7.75;;;3.30;;
24644;SDS011;12780;45.502;9.146;2023-04-24T07:38:17;4.20;;;3.17;;
24644;SDS011;12780;45.502;9.146;2023-04-24T07:40:46;6.80;;;2.72;;
24644;SDS011;12780;45.502;9.146;2023-04-24T07:43:12;4.68;;;3.10;;
24644;SDS011;12780;45.502;9.146;2023-04-24T07:45:37;5.18;;;3.03;;
24644;SDS011;12780;45.502;9.146;2023-04-24T07:48:04;4.30;;;2.58;;
24644;SDS011;12780;45.502;9.146;2023-04-24T07:50:30;5.32;;;2.90;;
24644;SDS011;12780;45.502;9.146;2023-04-24T07:52:55;3.53;;;2.60;;
24644;SDS011;12780;45.502;9.146;2023-04-24T07:55:21;4.45;;;2.50;;
24644;SDS011;12780;45.502;9.146;2023-04-24T07:57:46;7.78;;;2.70;;
24644;SDS011;12780;45.502;9.146;2023-04-24T08:00:12;5.03;;;2.50;;
24644;SDS011;12780;45.502;9.146;2023-04-24T08:02:38;5.00;;;2.88;;
24644;SDS011;12780;45.502;9.146;2023-04-24T08:05:04;5.68;;;2.35;;
24644;SDS011;12780;45.502;9.146;2023-04-24T08:07:30;4.95;;;2.35;;
24644;SDS011;12780;45.502;9.146;2023-04-24T08:09:56;3.25;;;2.20;;
24644;SDS011;12780;45.502;9.146;2023-04-24T08:12:21;3.85;;;2.20;;
24644;SDS011;12780;45.502;9.146;2023-04-24T08:14:47;8.30;;;2.40;;
24644;SDS011;12780;45.502;9.146;2023-04-24T08:17:12;4.35;;;2.63;;
24644;SDS011;12780;45.502;9.146;2023-04-24T08:19:39;3.38;;;2.20;;
24644;SDS011;12780;45.502;9.146;2023-04-24T08:22:12;3.72;;;1.90;;
24644;SDS011;12780;45.502;9.146;2023-04-24T08:24:38;5.55;;;1.67;;
24644;SDS011;12780;45.502;9.146;2023-04-24T08:27:03;2.67;;;1.95;;
24644;SDS011;12780;45.502;9.146;2023-04-24T08:29:29;3.50;;;2.03;;
24644;SDS011;12780;45.502;9.146;2023-04-24T08:31:54;5.13;;;1.75;;
24644;SDS011;12780;45.502;9.146;2023-04-24T08:34:20;4.88;;;1.77;;
24644;SDS011;12780;45.502;9.146;2023-04-24T08:36:46;3.47;;;1.60;;
24644;SDS011;12780;45.502;9.146;2023-04-24T08:39:12;2.67;;;1.80;;
24644;SDS011;12780;45.502;9.146;2023-04-24T08:41:39;4.68;;;1.67;;
24644;SDS011;12780;45.502;9.146;2023-04-24T08:44:07;4.47;;;2.13;;
24644;SDS011;12780;45.502;9.146;2023-04-24T08:46:34;4.28;;;2.05;;
24644;SDS011;12780;45.502;9.146;2023-04-24T08:49:01;2.33;;;1.80;;
24644;SDS011;12780;45.502;9.146;2023-04-24T08:51:28;5.05;;;2.17;;
24644;SDS011;12780;45.502;9.146;2023-04-24T08:53:55;2.30;;;1.88;;
24644;SDS011;12780;45.502;9.146;2023-04-24T08:56:22;3.28;;;2.00;;
24644;SDS011;12780;45.502;9.146;2023-04-24T08:58:50;6.18;;;2.13;;
24644;SDS011;12780;45.502;9.146;2023-04-24T09:01:20;3.25;;;2.05;;
24644;SDS011;12780;45.502;9.146;2023-04-24T09:03:48;3.13;;;1.92;;
24644;SDS011;12780;45.502;9.146;2023-04-24T09:06:14;3.05;;;1.98;;
24644;SDS011;12780;45.502;9.146;2023-04-24T09:08:42;3.97;;;2.00;;
24644;SDS011;12780;45.502;9.146;2023-04-24T09:11:10;6.07;;;2.20;;
24644;SDS011;12780;45.502;9.146;2023-04-24T09:13:36;2.35;;;1.80;;
24644;SDS011;12780;45.502;9.146;2023-04-24T09:16:02;3.78;;;1.88;;
24644;SDS011;12780;45.502;9.146;2023-04-24T09:18:28;4.50;;;1.98;;
24644;SDS011;12780;45.502;9.146;2023-04-24T09:20:57;4.10;;;2.30;;
24644;SDS011;12780;45.502;9.146;2023-04-24T09:23:31;2.13;;;1.83;;
24644;SDS011;12780;45.502;9.146;2023-04-24T09:25:57;4.05;;;2.00;;
24644;SDS011;12780;45.502;9.146;2023-04-24T09:28:26;4.00;;;1.67;;
24644;SDS011;12780;45.502;9.146;2023-04-24T09:31:08;2.50;;;1.65;;
24644;SDS011;12780;45.502;9.146;2023-04-24T09:33:34;1.92;;;1.60;;
24644;SDS011;12780;45.502;9.146;2023-04-24T09:36:00;3.28;;;1.50;;
24644;SDS011;12780;45.502;9.146;2023-04-24T09:38:37;2.88;;;1.73;;
24644;SDS011;12780;45.502;9.146;2023-04-24T09:41:04;3.20;;;2.20;;
24644;SDS011;12780;45.502;9.146;2023-04-24T09:43:32;2.78;;;2.30;;
24644;SDS011;12780;45.502;9.146;2023-04-24T09:46:00;3.42;;;2.20;;
24644;SDS011;12780;45.502;9.146;2023-04-24T09:48:34;4.75;;;2.28;;
24644;SDS011;12780;45.502;9.146;2023-04-24T09:51:05;4.55;;;2.47;;
24644;SDS011;12780;45.502;9.146;2023-04-24T09:53:32;4.22;;;2.33;;
24644;SDS011;12780;45.502;9.146;2023-04-24T09:56:08;3.25;;;2.30;;
24644;SDS011;12780;45.502;9.146;2023-04-24T09:58:35;3.25;;;2.42;;
24644;SDS011;12780;45.502;9.146;2023-04-24T10:01:01;4.50;;;2.40;;
24644;SDS011;12780;45.502;9.146;2023-04-24T10:03:29;2.78;;;2.17;;
24644;SDS011;12780;45.502;9.146;2023-04-24T10:05:59;3.85;;;2.50;;
24644;SDS011;12780;45.502;9.146;2023-04-24T10:08:25;3.85;;;2.45;;
24644;SDS011;12780;45.502;9.146;2023-04-24T10:10:51;3.53;;;2.20;;
24644;SDS011;12780;45.502;9.146;2023-04-24T10:13:17;2.72;;;1.85;;
24644;SDS011;12780;45.502;9.146;2023-04-24T10:15:43;2.80;;;1.70;;
24644;SDS011;12780;45.502;9.146;2023-04-24T10:18:10;3.60;;;1.85;;
24644;SDS011;12780;45.502;9.146;2023-04-24T10:20:38;3.13;;;1.90;;
24644;SDS011;12780;45.502;9.146;2023-04-24T10:23:05;4.28;;;1.70;;
24644;SDS011;12780;45.502;9.146;2023-04-24T10:25:32;2.42;;;1.70;;
24644;SDS011;12780;45.502;9.146;2023-04-24T10:27:59;3.50;;;1.77;;
24644;SDS011;12780;45.502;9.146;2023-04-24T10:30:26;2.88;;;1.67;;
24644;SDS011;12780;45.502;9.146;2023-04-24T10:32:53;2.55;;;1.52;;
24644;SDS011;12780;45.502;9.146;2023-04-24T10:35:19;2.30;;;1.27;;
24644;SDS011;12780;45.502;9.146;2023-04-24T10:37:58;2.65;;;1.55;;
24644;SDS011;12780;45.502;9.146;2023-04-24T10:40:34;1.80;;;1.27;;
24644;SDS011;12780;45.502;9.146;2023-04-24T10:43:07;2.17;;;1.40;;
24644;SDS011;12780;45.502;9.146;2023-04-24T10:45:35;1.83;;;1.20;;
24644;SDS011;12780;45.502;9.146;2023-04-24T10:48:03;1.88;;;1.40;;
24644;SDS011;12780;45.502;9.146;2023-04-24T10:50:45;2.60;;;1.50;;
24644;SDS011;12780;45.502;9.146;2023-04-24T10:53:13;2.78;;;1.20;;
24644;SDS011;12780;45.502;9.146;2023-04-24T10:55:43;1.48;;;1.20;;
24644;SDS011;12780;45.502;9.146;2023-04-24T10:58:13;4.47;;;1.70;;
24644;SDS011;12780;45.502;9.146;2023-04-24T11:00:41;3.80;;;1.50;;
24644;SDS011;12780;45.502;9.146;2023-04-24T11:03:29;5.40;;;1.95;;
24644;SDS011;12780;45.502;9.146;2023-04-24T11:06:06;2.70;;;1.45;;
24644;SDS011;12780;45.502;9.146;2023-04-24T11:08:39;4.25;;;1.08;;
24644;SDS011;12780;45.502;9.146;2023-04-24T11:21:40;2.92;;;0.90;;
24644;SDS011;12780;45.502;9.146;2023-04-24T11:24:23;2.40;;;0.95;;
24644;SDS011;12780;45.502;9.146;2023-04-24T11:26:50;1.85;;;0.90;;
24644;SDS011;12780;45.502;9.146;2023-04-24T11:29:19;1.38;;;0.93;;
24644;SDS011;12780;45.502;9.146;2023-04-24T11:31:45;4.22;;;1.50;;
24644;SDS011;12780;45.502;9.146;2023-04-24T11:34:16;3.08;;;1.45;;
24644;SDS011;12780;45.502;9.146;2023-04-24T11:36:43;2.10;;;1.30;;
24644;SDS011;12780;45.502;9.146;2023-04-24T11:39:10;3.55;;;1.23;;
24644;SDS011;12780;45.502;9.146;2023-04-24T11:41:36;2.38;;;1.30;;
24644;SDS011;12780;45.502;9.146;2023-04-24T11:44:03;3.13;;;1.10;;
24644;SDS011;12780;45.502;9.146;2023-04-24T11:46:31;2.95;;;1.15;;
24644;SDS011;12780;45.502;9.146;2023-04-24T11:48:57;2.17;;;1.30;;
24644;SDS011;12780;45.502;9.146;2023-04-24T11:51:24;2.70;;;1.55;;
24644;SDS011;12780;45.502;9.146;2023-04-24T11:53:51;4.07;;;1.23;;
24644;SDS011;12780;45.502;9.146;2023-04-24T11:56:18;2.55;;;1.17;;
24644;SDS011;12780;45.502;9.146;2023-04-24T11:58:44;3.55;;;1.63;;
24644;SDS011;12780;45.502;9.146;2023-04-24T12:01:11;2.10;;;1.35;;
24644;SDS011;12780;45.502;9.146;2023-04-24T12:03:37;4.53;;;1.52;;
24644;SDS011;12780;45.502;9.146;2023-04-24T12:06:09;1.42;;;1.10;;
24644;SDS011;12780;45.502;9.146;2023-04-24T12:08:36;2.85;;;1.40;;
24644;SDS011;12780;45.502;9.146;2023-04-24T12:11:03;4.05;;;1.20;;
24644;SDS011;12780;45.502;9.146;2023-04-24T12:13:32;3.95;;;1.48;;
24644;SDS011;12780;45.502;9.146;2023-04-24T12:15:58;3.67;;;1.65;;
24644;SDS011;12780;45.502;9.146;2023-04-24T12:18:24;2.20;;;1.00;;
24644;SDS011;12780;45.502;9.146;2023-04-24T12:20:51;1.48;;;0.95;;
24644;SDS011;12780;45.502;9.146;2023-04-24T12:23:16;1.40;;;1.00;;
24644;SDS011;12780;45.502;9.146;2023-04-24T12:26:04;2.10;;;1.10;;
24644;SDS011;12780;45.502;9.146;2023-04-24T12:28:36;1.25;;;0.80;;
24644;SDS011;12780;45.502;9.146;2023-04-24T12:31:03;1.20;;;0.73;;
24644;SDS011;12780;45.502;9.146;2023-04-24T12:33:34;2.72;;;0.82;;
24644;SDS011;12780;45.502;9.146;2023-04-24T12:36:00;3.70;;;1.00;;
24644;SDS011;12780;45.502;9.146;2023-04-24T12:38:27;2.25;;;0.90;;
24644;SDS011;12780;45.502;9.146;2023-04-24T12:41:01;4.50;;;1.48;;
24644;SDS011;12780;45.502;9.146;2023-04-24T12:43:34;2.05;;;0.70;;
24644;SDS011;12780;45.502;9.146;2023-04-24T12:46:01;4.13;;;2.60;;
24644;SDS011;12780;45.502;9.146;2023-04-24T12:48:27;4.38;;;2.50;;
24644;SDS011;12780;45.502;9.146;2023-04-24T12:50:53;1.73;;;0.93;;
24644;SDS011;12780;45.502;9.146;2023-04-24T12:53:18;1.40;;;0.70;;
24644;SDS011;12780;45.502;9.146;2023-04-24T12:55:44;0.60;;;0.50;;
24644;SDS011;12780;45.502;9.146;2023-04-24T12:58:10;0.95;;;0.40;;
24644;SDS011;12780;45.502;9.146;2023-04-24T13:00:36;0.30;;;0.30;;
24644;SDS011;12780;45.502;9.146;2023-04-24T13:03:02;0.50;;;0.40;;
24644;SDS011;12780;45.502;9.146;2023-04-24T13:05:28;0.50;;;0.40;;
24644;SDS011;12780;45.502;9.146;2023-04-24T13:07:53;1.20;;;0.68;;
24644;SDS011;12780;45.502;9.146;2023-04-24T13:10:19;3.00;;;0.60;;
24644;SDS011;12780;45.502;9.146;2023-04-24T13:12:45;2.50;;;0.68;;
24644;SDS011;12780;45.502;9.146;2023-04-24T13:15:11;1.13;;;0.50;;
24644;SDS011;12780;45.502;9.146;2023-04-24T13:17:37;0.82;;;0.50;;
24644;SDS011;12780;45.502;9.146;2023-04-24T13:20:03;1.80;;;0.70;;
24644;SDS011;12780;45.502;9.146;2023-04-24T13:22:30;1.23;;;0.60;;
24644;SDS011;12780;45.502;9.146;2023-04-24T13:24:55;1.25;;;0.60;;
24644;SDS011;12780;45.502;9.146;2023-04-24T13:27:22;1.38;;;0.70;;
24644;SDS011;12780;45.502;9.146;2023-04-24T13:29:47;1.90;;;0.88;;
24644;SDS011;12780;45.502;9.146;2023-04-24T13:32:13;1.85;;;0.90;;
24644;SDS011;12780;45.502;9.146;2023-04-24T13:34:38;1.30;;;0.60;;
24644;SDS011;12780;45.502;9.146;2023-04-24T13:37:04;1.10;;;0.77;;
24644;SDS011;12780;45.502;9.146;2023-04-24T13:39:30;0.63;;;0.50;;
24644;SDS011;12780;45.502;9.146;2023-04-24T13:41:56;0.98;;;0.50;;
24644;SDS011;12780;45.502;9.146;2023-04-24T13:44:22;3.38;;;0.70;;
24644;SDS011;12780;45.502;9.146;2023-04-24T13:46:49;2.58;;;0.90;;
24644;SDS011;12780;45.502;9.146;2023-04-24T13:49:18;2.22;;;0.60;;
24644;SDS011;12780;45.502;9.146;2023-04-24T13:51:45;1.55;;;0.40;;
24644;SDS011;12780;45.502;9.146;2023-04-24T13:54:10;1.02;;;0.52;;
24644;SDS011;12780;45.502;9.146;2023-04-24T13:56:36;0.43;;;0.40;;
24644;SDS011;12780;45.502;9.146;2023-04-24T13:59:02;0.98;;;0.52;;
24644;SDS011;12780;45.502;9.146;2023-04-24T14:01:27;0.82;;;0.43;;
24644;SDS011;12780;45.502;9.146;2023-04-24T14:03:53;0.70;;;0.40;;
24644;SDS011;12780;45.502;9.146;2023-04-24T14:06:20;0.40;;;0.40;;
24644;SDS011;12780;45.502;9.146;2023-04-24T14:08:47;1.13;;;0.50;;
24644;SDS011;12780;45.502;9.146;2023-04-24T14:11:13;0.68;;;0.40;;
24644;SDS011;12780;45.502;9.146;2023-04-24T14:13:40;1.92;;;0.75;;
24644;SDS011;12780;45.502;9.146;2023-04-24T14:16:06;1.05;;;0.73;;
24644;SDS011;12780;45.502;9.146;2023-04-24T14:18:32;0.63;;;0.50;;
24644;SDS011;12780;45.502;9.146;2023-04-24T14:20:57;0.75;;;0.40;;
24644;SDS011;12780;45.502;9.146;2023-04-24T14:23:23;1.48;;;0.57;;
24644;SDS011;12780;45.502;9.146;2023-04-24T14:25:49;2.45;;;0.40;;
24644;SDS011;12780;45.502;9.146;2023-04-24T14:28:17;1.52;;;0.77;;
24644;SDS011;12780;45.502;9.146;2023-04-24T14:30:43;0.52;;;0.50;;
24644;SDS011;12780;45.502;9.146;2023-04-24T14:33:09;0.77;;;0.60;;
24644;SDS011;12780;45.502;9.146;2023-04-24T14:35:35;2.85;;;0.90;;
24644;SDS011;12780;45.502;9.146;2023-04-24T14:38:01;0.63;;;0.60;;
24644;SDS011;12780;45.502;9.146;2023-04-24T14:40:27;2.78;;;1.75;;
24644;SDS011;12780;45.502;9.146;2023-04-24T14:42:53;13.63;;;6.22;;
24644;SDS011;12780;45.502;9.146;2023-04-24T14:45:18;2.47;;;1.27;;
24644;SDS011;12780;45.502;9.146;2023-04-24T14:47:44;1.05;;;0.50;;
24644;SDS011;12780;45.502;9.146;2023-04-24T14:50:10;0.45;;;0.45;;